Time;durP1;ratioP1;P1;durP2;ratioP2;P2;SDS_P1;SDS_P2;PMS_P1;PMS_P2;Temp;Humidity;BMP_temperature;BMP_pressure;BME280_temperature;BME280_humidity;BME280_pressure;Samples;Min_cycle;Max_cycle;Signal;HPM_P1;HPM_P2
2021/04/26 00:02:05;;;;;;;0.93;0.93;;;;;;;2.83;70.55;102028.03;5964499;29;20212;-72
2021/04/26 00:05:11;;;;;;;1.00;1.00;;;;;;;2.84;70.92;102037.84;5963295;30;20477;-72
2021/04/26 00:08:14;;;;;;;1.07;1.07;;;;;;;2.95;70.46;102022.38;5963283;30;20486;-71
2021/04/26 00:11:17;;;;;;;1.10;1.10;;;;;;;2.94;70.54;102030.63;5963295;30;20382;-72
2021/04/26 00:14:21;;;;;;;1.20;1.20;;;;;;;2.79;71.86;102021.22;5961294;29;20228;-71
2021/04/26 00:17:25;;;;;;;3.03;1.10;;;;;;;2.80;71.50;102031.03;5959642;30;20413;-72
2021/04/26 00:20:30;;;;;;;1.00;1.00;;;;;;;2.83;71.14;102036.13;5959626;30;20250;-72
2021/04/26 00:23:33;;;;;;;0.90;0.90;;;;;;;2.79;71.07;102021.22;5960415;29;20234;-71
2021/04/26 00:26:37;;;;;;;0.87;0.87;;;;;;;2.68;71.25;102024.03;5960336;30;20218;-71
2021/04/26 00:29:41;;;;;;;1.00;1.00;;;;;;;2.76;71.24;102018.81;5960597;30;20195;-73
2021/04/26 00:32:46;;;;;;;1.00;1.00;;;;;;;2.84;70.92;102029.75;5959651;30;20202;-71
2021/04/26 00:35:50;;;;;;;1.13;0.93;;;;;;;2.84;71.58;102018.97;5959571;30;20224;-72
2021/04/26 00:38:53;;;;;;;1.40;1.00;;;;;;;2.82;70.97;102015.56;5960184;30;20267;-71
2021/04/26 00:41:56;;;;;;;1.03;1.03;;;;;;;2.77;71.76;102025.91;5960448;30;20229;-71
2021/04/26 00:45:00;;;;;;;1.00;1.00;;;;;;;2.73;72.34;102016.38;5943457;30;20217;-72
2021/04/26 00:48:04;;;;;;;2.73;1.00;;;;;;;2.45;72.09;101950.66;5959362;30;20241;-72
2021/04/26 00:51:08;;;;;;;1.10;1.10;;;;;;;2.85;72.12;102009.91;5943644;30;20249;-72
2021/04/26 00:54:11;;;;;;;1.10;1.10;;;;;;;2.92;72.75;102016.44;5958875;30;20196;-72
2021/04/26 00:57:14;;;;;;;0.90;0.90;;;;;;;2.99;72.06;102006.81;5959871;30;20201;-72
2021/04/26 01:00:20;;;;;;;1.00;1.00;;;;;;;2.90;73.50;102013.03;5943288;30;20251;-72
2021/04/26 01:03:24;;;;;;;1.00;1.00;;;;;;;2.91;73.73;102012.03;5959574;30;20248;-72
2021/04/26 01:06:28;;;;;;;0.90;0.90;;;;;;;2.88;74.04;102010.47;5943268;30;20243;-72
2021/04/26 01:09:31;;;;;;;1.00;1.00;;;;;;;2.84;74.43;102008.19;5963059;30;20232;-72
2021/04/26 01:13:07;;;;;;;0.90;0.90;;;;;;;2.95;73.85;102002.69;5949113;30;20274;-72
2021/04/26 01:16:18;;;;;;;1.00;1.00;;;;;;;2.87;74.08;101991.75;5929396;30;20216;-71
2021/04/26 01:19:50;;;;;;;0.90;0.90;;;;;;;3.02;73.76;102002.00;5943195;30;20526;-71
2021/04/26 01:23:26;;;;;;;3.23;1.00;;;;;;;2.95;74.65;101991.91;5942889;30;20228;-71
2021/04/26 01:26:36;;;;;;;1.20;1.10;;;;;;;2.98;74.49;101988.91;5919745;30;20264;-72
2021/04/26 01:29:59;;;;;;;1.00;1.00;;;;;;;3.03;74.53;101990.19;5959641;30;20275;-71
2021/04/26 01:33:07;;;;;;;0.80;0.80;;;;;;;2.97;74.52;101981.81;5942734;30;20383;-71
2021/04/26 01:36:19;;;;;;;0.93;0.93;;;;;;;3.10;74.27;101988.66;5958165;30;20263;-72
2021/04/26 01:39:29;;;;;;;1.10;1.10;;;;;;;3.03;74.11;101975.88;5943165;30;20213;-71
2021/04/26 01:42:34;;;;;;;1.07;1.07;;;;;;;2.99;74.32;101974.44;5942765;30;20478;-72
2021/04/26 01:45:38;;;;;;;0.90;0.90;;;;;;;2.95;74.49;101973.03;5958927;30;20197;-72
2021/04/26 01:48:45;;;;;;;1.23;1.00;;;;;;;2.91;74.55;101971.59;5957843;30;20367;-70
2021/04/26 01:51:50;;;;;;;0.90;0.90;;;;;;;2.98;74.17;101978.13;5942077;30;20476;-71
2021/04/26 01:54:54;;;;;;;0.90;0.90;;;;;;;3.14;73.55;101973.03;5958782;30;20193;-71
2021/04/26 01:57:59;;;;;;;0.93;0.93;;;;;;;3.07;73.50;101969.22;5941915;30;20214;-71
2021/04/26 02:01:05;;;;;;;0.90;0.90;;;;;;;2.98;73.13;101972.72;5942016;30;20211;-71
2021/04/26 02:04:13;;;;;;;1.10;1.10;;;;;;;3.07;71.98;101977.28;5957756;30;20252;-71
2021/04/26 02:07:50;;;;;;;1.10;1.10;;;;;;;2.98;72.69;101961.94;5957290;30;20564;-71
2021/04/26 02:11:04;;;;;;;0.90;0.90;;;;;;;3.03;71.83;101975.88;5941330;30;20535;-71
2021/04/26 02:14:09;;;;;;;0.93;0.93;;;;;;;2.97;72.34;101968.34;5958117;30;20262;-72
2021/04/26 02:17:13;;;;;;;0.80;0.80;;;;;;;3.02;72.24;101974.16;5958122;30;20197;-72
2021/04/26 02:20:19;;;;;;;1.00;1.00;;;;;;;3.05;71.29;101974.75;5941307;30;20521;-72
2021/04/26 02:23:24;;;;;;;1.03;1.03;;;;;;;3.04;71.33;101972.19;5957937;30;20203;-73
2021/04/26 02:26:28;;;;;;;0.90;0.90;;;;;;;3.09;70.53;101965.38;5941523;30;20236;-73
2021/04/26 02:29:31;;;;;;;0.90;0.90;;;;;;;3.09;70.56;101961.81;5957915;30;20210;-71
2021/04/26 02:32:47;;;;;;;0.80;0.80;;;;;;;2.98;70.03;101972.72;5941590;30;20524;-71
2021/04/26 02:36:15;;;;;;;2.30;1.00;;;;;;;3.07;68.76;101961.13;5957423;29;20260;-72
2021/04/26 02:39:19;;;;;;;1.00;1.00;;;;;;;2.62;68.84;101906.88;5941181;30;20444;-72
2021/04/26 02:42:23;;;;;;;1.00;1.00;;;;;;;3.20;67.66;101967.09;5956766;30;20213;-71
2021/04/26 02:45:30;;;;;;;1.03;1.03;;;;;;;2.87;67.71;101943.22;5957841;30;20195;-72
2021/04/26 02:48:35;;;;;;;1.23;1.23;;;;;;;3.03;67.82;101975.88;5957689;30;20252;-72
2021/04/26 02:51:39;;;;;;;0.93;0.93;;;;;;;3.02;67.38;101958.00;5956707;30;20510;-71
2021/04/26 02:54:45;;;;;;;1.10;1.10;;;;;;;3.12;66.97;101959.72;5941269;30;20219;-72
2021/04/26 02:57:50;;;;;;;1.00;1.00;;;;;;;3.12;67.12;101950.75;5957598;30;20210;-72
2021/04/26 03:00:54;;;;;;;1.17;1.17;;;;;;;3.20;66.55;101945.50;5941741;30;20220;-71
2021/04/26 03:04:05;;;;;;;0.80;0.80;;;;;;;3.04;66.60;101920.94;5956925;30;20244;-72
2021/04/26 03:07:12;;;;;;;1.30;1.20;;;;;;;3.19;65.96;101943.78;5956488;30;20396;-72
2021/04/26 03:10:23;;;;;;;2.57;1.30;;;;;;;3.26;65.72;101942.25;5940267;30;20588;-72
2021/04/26 03:13:27;;;;;;;3.23;1.00;;;;;;;3.12;66.21;101945.38;5956513;30;20492;-72
2021/04/26 03:16:32;;;;;;;1.40;1.00;;;;;;;3.20;66.05;101953.59;5957420;30;20199;-72
2021/04/26 03:19:39;;;;;;;1.90;1.00;;;;;;;3.13;65.46;101944.38;5957533;30;20200;-72
2021/04/26 03:22:45;;;;;;;1.20;1.20;;;;;;;3.06;65.81;101937.84;5941182;30;20212;-72
2021/04/26 03:25:49;;;;;;;1.00;1.00;;;;;;;2.96;65.65;101937.84;5941969;30;20292;-72
2021/04/26 03:28:53;;;;;;;3.50;1.10;;;;;;;3.00;65.70;101943.81;5957106;30;20219;-72
2021/04/26 03:31:57;;;;;;;1.30;1.20;;;;;;;3.26;65.46;101939.56;5956740;30;20196;-72
2021/04/26 03:35:07;;;;;;;1.27;1.27;;;;;;;3.09;65.21;101916.84;5941272;30;20212;-72
2021/04/26 03:38:18;;;;;;;1.40;1.10;;;;;;;3.26;65.37;101944.94;5941769;30;20215;-72
2021/04/26 03:41:22;;;;;;;1.20;1.20;;;;;;;3.25;64.64;101937.84;5941111;30;20239;-72
2021/04/26 03:44:26;;;;;;;1.00;1.00;;;;;;;3.04;65.42;101945.22;5955457;30;20512;-72
2021/04/26 03:47:57;;;;;;;1.20;1.20;;;;;;;3.25;65.16;101948.63;5941345;29;20307;-72
2021/04/26 03:51:39;;;;;;;4.13;1.30;;;;;;;3.19;65.77;101943.78;5946427;30;20214;-72
2021/04/26 03:54:55;;;;;;;1.30;1.20;;;;;;;3.23;65.42;101933.59;5961558;30;20197;-72
2021/04/26 03:57:59;;;;;;;2.37;1.30;;;;;;;3.22;64.97;101938.13;5961234;30;20205;-72
2021/04/26 04:01:03;;;;;;;1.63;1.20;;;;;;;3.23;64.46;101942.53;5945610;30;20210;-72
2021/04/26 04:04:07;;;;;;;1.00;1.00;;;;;;;2.98;64.72;101897.25;5960645;30;20415;-72
2021/04/26 04:07:28;;;;;;;1.20;1.20;;;;;;;3.15;64.43;101932.47;5961225;30;20229;-72
2021/04/26 04:10:51;;;;;;;1.57;1.30;;;;;;;3.20;64.02;101932.03;5961207;30;20197;-72
2021/04/26 04:14:20;;;;;;;3.30;1.83;;;;;;;3.19;63.68;101916.81;5932854;30;20359;-72
2021/04/26 04:17:28;;;;;;;1.30;1.30;;;;;;;3.21;63.81;101931.00;5944709;30;20214;-72
2021/04/26 04:20:32;;;;;;;3.40;1.17;;;;;;;3.27;63.43;101919.66;5960728;30;20311;-71
2021/04/26 04:23:35;;;;;;;1.30;1.30;;;;;;;3.34;63.35;101920.78;5943926;30;20288;-72
2021/04/26 04:26:39;;;;;;;1.40;1.30;;;;;;;3.16;63.45;101930.59;5944483;30;20305;-72
2021/04/26 04:29:43;;;;;;;1.17;1.17;;;;;;;3.29;63.61;101917.66;5959488;30;20487;-71
2021/04/26 04:33:18;;;;;;;1.30;1.30;;;;;;;3.31;63.69;101915.69;5960447;30;20212;-71
2021/04/26 04:36:41;;;;;;;2.63;1.20;;;;;;;3.33;63.27;101916.41;5960095;30;20275;-72
2021/04/26 04:40:07;;;;;;;1.90;1.37;;;;;;;3.31;62.10;101915.69;5960373;30;20196;-72
2021/04/26 04:43:34;;;;;;;1.50;1.50;;;;;;;3.37;63.12;101908.84;5944354;30;20223;-72
2021/04/26 04:46:51;;;;;;;1.70;1.30;;;;;;;3.54;62.60;101906.28;5943421;30;20311;-72
2021/04/26 04:50:01;;;;;;;1.33;1.33;;;;;;;3.51;61.64;101901.16;5943828;30;20213;-73
2021/04/26 04:53:09;;;;;;;1.90;1.30;;;;;;;3.56;61.51;101895.34;5943816;30;20390;-71
2021/04/26 04:56:14;;;;;;;2.50;1.43;;;;;;;3.53;60.78;101904.56;5943303;30;20212;-73
2021/04/26 04:59:21;;;;;;;1.20;1.20;;;;;;;3.64;60.69;101907.09;5943167;29;20223;-72
2021/04/26 05:02:33;;;;;;;2.73;1.23;;;;;;;3.83;60.79;101905.34;5942804;30;20220;-71
2021/04/26 05:05:55;;;;;;;2.57;1.57;;;;;;;3.45;60.79;101915.22;5958708;30;20500;-72
2021/04/26 05:09:17;;;;;;;6.70;1.33;;;;;;;3.44;60.77;101900.03;5959345;30;20259;-72
2021/04/26 05:12:39;;;;;;;1.37;1.37;;;;;;;3.53;60.78;101892.91;5959649;30;20246;-72
2021/04/26 05:16:00;;;;;;;4.67;1.40;;;;;;;3.57;59.99;101905.97;5943594;30;20238;-71
2021/04/26 05:19:04;;;;;;;2.57;1.10;;;;;;;3.45;59.81;101906.28;5958412;30;20236;-71
2021/04/26 05:22:09;;;;;;;4.93;1.27;;;;;;;3.33;60.23;101886.72;5958581;29;20296;-71
2021/04/26 05:25:14;;;;;;;1.30;1.20;;;;;;;3.69;60.13;101912.91;5943441;30;20244;-72
2021/04/26 05:28:19;;;;;;;1.37;1.37;;;;;;;3.63;60.55;101910.78;5943311;30;20241;-72
2021/04/26 05:31:28;;;;;;;1.50;1.40;;;;;;;3.77;60.12;101910.31;5943283;30;20212;-72
2021/04/26 05:34:31;;;;;;;1.50;1.40;;;;;;;3.77;60.34;101915.69;5958030;30;20197;-73
2021/04/26 05:37:35;;;;;;;4.93;1.47;;;;;;;3.70;60.07;101911.03;5959064;30;20200;-72
2021/04/26 05:40:39;;;;;;;3.40;1.20;;;;;;;3.88;60.02;101903.06;5942436;30;20396;-72
2021/04/26 05:43:42;;;;;;;1.40;1.40;;;;;;;3.83;59.12;101910.75;5942799;30;20225;-73
2021/04/26 05:46:46;;;;;;;2.40;1.40;;;;;;;3.72;59.35;101915.28;5957705;30;20206;-70
2021/04/26 05:49:50;;;;;;;2.70;1.20;;;;;;;3.61;59.20;101920.03;5942409;30;20553;-72
2021/04/26 05:52:54;;;;;;;5.37;1.80;;;;;;;3.62;59.60;101898.28;5958630;30;20247;-72
2021/04/26 05:55:57;;;;;;;1.90;1.50;;;;;;;3.73;58.83;101911.59;5957494;30;20399;-71
2021/04/26 05:59:00;;;;;;;1.90;1.57;;;;;;;3.75;59.53;101920.41;5957348;30;20387;-70
2021/04/26 06:02:05;;;;;;;3.90;1.43;;;;;;;3.61;58.37;101915.50;5958345;29;20253;-71
2021/04/26 06:05:10;;;;;;;1.20;1.20;;;;;;;3.85;58.84;101908.75;5957571;30;20262;-72
2021/04/26 06:08:14;;;;;;;1.83;1.60;;;;;;;3.94;58.25;101924.03;5958515;30;20232;-71
2021/04/26 06:11:17;;;;;;;2.37;2.17;;;;;;;4.04;58.31;101908.66;5957572;30;20196;-72
2021/04/26 06:14:20;;;;;;;4.47;1.80;;;;;;;4.03;58.47;101912.38;5958116;30;20197;-71
2021/04/26 06:17:24;;;;;;;1.60;1.50;;;;;;;3.98;58.63;101909.25;5956950;30;20185;-71
2021/04/26 06:20:27;;;;;;;3.80;1.57;;;;;;;3.81;58.43;101910.88;5957935;30;20196;-71
2021/04/26 06:23:31;;;;;;;2.17;1.47;;;;;;;4.00;58.48;101902.72;5957163;30;20204;-72
2021/04/26 06:26:34;;;;;;;2.50;1.30;;;;;;;4.03;57.75;101906.97;5957302;30;20196;-72
2021/04/26 06:29:38;;;;;;;1.57;1.50;;;;;;;4.05;57.44;101877.97;5956644;30;20266;-71
2021/04/26 06:32:42;;;;;;;7.10;1.70;;;;;;;4.19;56.70;101882.84;5957523;29;20245;-71
2021/04/26 06:35:48;;;;;;;3.00;1.70;;;;;;;4.27;56.55;101891.03;5958089;30;20197;-71
2021/04/26 06:38:52;;;;;;;1.40;1.30;;;;;;;4.03;56.84;101896.16;5956916;30;20201;-72
2021/04/26 06:41:57;;;;;;;1.73;1.50;;;;;;;4.04;56.97;101876.25;5956571;30;20397;-72
2021/04/26 06:45:00;;;;;;;6.87;1.60;;;;;;;4.00;56.89;101891.06;5956494;30;20429;-72
2021/04/26 06:48:07;;;;;;;1.67;1.57;;;;;;;4.01;57.06;101885.50;5957615;30;20224;-72
2021/04/26 06:51:10;;;;;;;6.50;1.50;;;;;;;4.13;57.11;101869.97;5958013;30;20248;-72
2021/04/26 06:54:14;;;;;;;2.30;1.33;;;;;;;4.17;56.82;101883.00;5957696;30;20203;-73
2021/04/26 06:57:17;;;;;;;2.20;1.30;;;;;;;4.25;55.85;101857.94;5957365;30;20268;-72
2021/04/26 07:00:22;;;;;;;3.80;1.97;;;;;;;4.36;56.73;101879.34;5957642;30;20197;-72
2021/04/26 07:03:34;;;;;;;10.53;1.80;;;;;;;4.58;57.31;101873.50;5956576;29;20254;-72
2021/04/26 07:06:38;;;;;;;2.10;1.40;;;;;;;4.63;56.67;101879.31;5956762;30;20235;-71
2021/04/26 07:09:41;;;;;;;2.87;1.60;;;;;;;4.55;57.17;101868.41;5956270;29;20510;-72
2021/04/26 07:12:45;;;;;;;1.63;1.47;;;;;;;4.63;56.64;101873.03;5957405;30;20293;-71
2021/04/26 07:15:48;;;;;;;2.00;1.47;;;;;;;4.62;56.93;101866.81;5956583;30;20483;-71
2021/04/26 07:18:52;;;;;;;1.83;1.50;;;;;;;4.67;56.78;101880.72;5957332;30;20231;-71
2021/04/26 07:21:55;;;;;;;1.37;1.27;;;;;;;4.57;57.32;101869.09;5956413;30;20210;-71
2021/04/26 07:24:58;;;;;;;7.80;1.40;;;;;;;4.53;57.73;101867.72;5960033;29;20480;-72
2021/04/26 07:28:02;;;;;;;1.50;1.43;;;;;;;4.55;57.55;101871.09;5962010;30;20221;-72
2021/04/26 07:31:05;;;;;;;3.93;1.67;;;;;;;4.65;59.58;101860.25;5962103;30;20203;-71
2021/04/26 07:34:10;;;;;;;1.70;1.70;;;;;;;4.49;60.13;101877.13;5961884;30;20223;-72
2021/04/26 07:37:13;;;;;;;3.10;1.20;;;;;;;4.43;60.75;101877.72;5966670;30;20254;-74
2021/04/26 07:40:17;;;;;;;5.30;1.70;;;;;;;4.29;59.93;101891.75;5962812;30;20511;-72
2021/04/26 07:43:20;;;;;;;1.30;1.30;;;;;;;4.31;59.82;101878.97;5960749;30;20197;-72
2021/04/26 07:46:23;;;;;;;3.13;1.40;;;;;;;4.10;59.93;101887.31;5960993;30;20369;-72
2021/04/26 07:49:27;;;;;;;6.57;1.57;;;;;;;4.13;59.33;101883.47;5960249;29;20231;-72
2021/04/26 07:52:36;;;;;;;3.07;1.77;;;;;;;4.08;58.99;101883.06;5960205;30;20271;-72
2021/04/26 07:55:39;;;;;;;2.17;1.97;;;;;;;4.15;58.33;101887.72;5960061;30;20426;-72
2021/04/26 07:58:43;;;;;;;4.90;1.73;;;;;;;4.29;58.96;101889.03;5961412;30;20200;-71
2021/04/26 08:01:46;;;;;;;2.07;1.30;;;;;;;4.33;58.78;101880.50;5960971;30;20238;-72
2021/04/26 08:04:51;;;;;;;8.43;2.30;;;;;;;4.43;58.22;101877.72;5960870;30;20240;-71
2021/04/26 08:07:54;;;;;;;2.50;1.67;;;;;;;4.50;57.53;101878.81;5961160;30;20222;-72
2021/04/26 08:10:57;;;;;;;2.07;1.53;;;;;;;4.49;57.28;101893.34;5961080;30;20257;-72
2021/04/26 08:14:00;;;;;;;1.90;1.80;;;;;;;4.58;56.12;101886.16;5960615;30;20260;-71
2021/04/26 08:17:03;;;;;;;1.90;1.57;;;;;;;4.58;57.01;101887.00;5959777;30;20490;-71
2021/04/26 08:20:09;;;;;;;3.23;1.60;;;;;;;4.58;57.83;101887.00;5960618;30;20443;-71
2021/04/26 08:23:13;;;;;;;2.23;2.13;;;;;;;4.59;56.82;101888.72;5960846;30;20228;-71
2021/04/26 08:26:17;;;;;;;2.53;2.00;;;;;;;4.45;57.07;101894.63;5960174;30;20197;-71
2021/04/26 08:29:20;;;;;;;1.80;1.70;;;;;;;4.68;56.37;101876.97;5959290;30;20226;-72
2021/04/26 08:32:23;;;;;;;1.77;1.63;;;;;;;4.70;57.22;101877.66;5959849;30;20245;-72
2021/04/26 08:35:27;;;;;;;1.50;1.50;;;;;;;4.69;57.25;101878.69;5959674;29;20200;-72
2021/04/26 08:38:31;;;;;;;1.70;1.60;;;;;;;4.77;57.76;101886.88;5959511;30;20176;-72
2021/04/26 08:41:34;;;;;;;1.80;1.70;;;;;;;4.74;57.13;101892.59;5960401;30;20260;-72
2021/04/26 08:44:37;;;;;;;2.30;1.80;;;;;;;4.73;58.58;101890.88;5959803;30;20523;-72
2021/04/26 08:47:41;;;;;;;2.40;2.30;;;;;;;4.78;58.94;101883.16;5959093;30;20544;-72
2021/04/26 08:50:46;;;;;;;2.00;1.90;;;;;;;4.81;59.95;101888.28;5958961;30;20417;-72
2021/04/26 08:53:49;;;;;;;3.03;1.63;;;;;;;4.47;62.23;101906.13;5942613;30;20436;-72
2021/04/26 08:56:53;;;;;;;2.30;2.03;;;;;;;4.32;63.98;101896.84;5958609;30;20501;-72
2021/04/26 08:59:57;;;;;;;5.00;1.80;;;;;;;4.36;64.71;101903.66;5959194;30;20200;-72
2021/04/26 09:03:01;;;;;;;3.93;1.87;;;;;;;4.29;64.69;101889.03;5959497;30;20281;-72
2021/04/26 09:06:07;;;;;;;1.80;1.70;;;;;;;4.49;63.59;101904.16;5959280;30;20225;-72
2021/04/26 09:09:12;;;;;;;2.50;1.60;;;;;;;4.62;65.07;101915.47;5959082;30;20259;-72
2021/04/26 09:12:23;;;;;;;5.10;1.63;;;;;;;4.58;60.61;101913.19;5959307;29;20195;-72
2021/04/26 09:15:26;;;;;;;1.70;1.60;;;;;;;4.74;60.01;101903.41;5959222;30;20238;-72
2021/04/26 09:18:50;;;;;;;1.50;1.40;;;;;;;4.53;60.13;101913.66;5959091;30;20199;-72
2021/04/26 09:21:55;;;;;;;2.17;1.60;;;;;;;4.53;59.31;101905.53;5959903;30;20195;-72
2021/04/26 09:25:22;;;;;;;2.37;1.53;;;;;;;4.73;60.00;101912.53;5959864;30;20210;-71
2021/04/26 09:28:25;;;;;;;3.93;1.43;;;;;;;4.73;59.00;101901.69;5959577;30;20224;-71
2021/04/26 09:31:31;;;;;;;3.03;1.50;;;;;;;4.86;58.02;101913.00;5958835;30;20228;-72
2021/04/26 09:34:36;;;;;;;1.33;1.30;;;;;;;4.76;57.58;101898.69;5959043;30;20356;-71
2021/04/26 09:37:40;;;;;;;3.90;1.60;;;;;;;4.68;57.62;101909.41;5958200;30;20266;-71
2021/04/26 09:40:44;;;;;;;5.80;1.50;;;;;;;4.81;57.13;101912.59;5958980;30;20275;-72
2021/04/26 09:43:49;;;;;;;1.57;1.50;;;;;;;4.87;58.16;101903.88;5958830;30;20198;-73
2021/04/26 09:46:53;;;;;;;3.33;1.70;;;;;;;4.88;56.71;101910.13;5959079;29;20239;-71
2021/04/26 09:50:03;;;;;;;2.67;1.83;;;;;;;4.87;57.09;101909.28;5959142;30;20224;-71
2021/04/26 09:53:09;;;;;;;1.70;1.60;;;;;;;4.79;57.35;101909.22;5958978;30;20207;-71
2021/04/26 09:56:16;;;;;;;2.23;1.40;;;;;;;4.85;56.81;101930.22;5958993;30;20202;-71
2021/04/26 09:59:19;;;;;;;1.13;1.13;;;;;;;4.93;56.97;101914.06;5957508;30;20472;-71
2021/04/26 10:02:23;;;;;;;4.70;1.50;;;;;;;5.02;56.84;101909.59;5958182;29;20278;-73
2021/04/26 10:05:27;;;;;;;1.50;1.50;;;;;;;5.08;55.90;101920.63;5958861;30;20202;-72
2021/04/26 10:08:32;;;;;;;1.60;1.50;;;;;;;5.08;56.72;101923.34;5958444;30;20220;-72
2021/04/26 10:11:37;;;;;;;2.37;1.70;;;;;;;5.06;57.00;101924.50;5958805;30;20195;-73
2021/04/26 10:14:42;;;;;;;4.37;1.30;;;;;;;4.88;58.27;101918.22;5958453;30;20202;-71
2021/04/26 10:18:09;;;;;;;1.40;1.40;;;;;;;5.06;58.59;101930.75;5958335;30;20227;-72
2021/04/26 10:21:36;;;;;;;3.73;1.30;;;;;;;4.81;59.56;101912.59;5957098;30;20479;-72
2021/04/26 10:24:52;;;;;;;1.30;1.30;;;;;;;4.90;58.29;101925.22;5957977;30;20204;-72
2021/04/26 10:27:57;;;;;;;1.83;1.73;;;;;;;4.87;57.89;101922.81;5956797;30;20483;-71
2021/04/26 10:31:09;;;;;;;1.23;1.23;;;;;;;4.91;58.21;101921.50;5958032;30;20219;-71
2021/04/26 10:34:13;;;;;;;3.27;1.37;;;;;;;4.93;58.48;101919.47;5957692;30;20426;-71
2021/04/26 10:37:21;;;;;;;1.60;1.43;;;;;;;4.96;59.79;101919.16;5958026;30;20262;-71
2021/04/26 10:40:36;;;;;;;1.60;1.40;;;;;;;5.25;59.16;101918.06;5957136;30;20371;-72
2021/04/26 10:43:52;;;;;;;3.37;1.80;;;;;;;5.21;59.25;101906.75;5956696;30;20480;-72
2021/04/26 10:47:15;;;;;;;1.53;1.53;;;;;;;5.40;58.90;101911.09;5956774;30;20201;-71
2021/04/26 10:50:38;;;;;;;2.63;1.57;;;;;;;5.41;58.10;101901.97;5956918;30;20224;-71
2021/04/26 10:53:45;;;;;;;2.80;1.60;;;;;;;5.41;57.24;101912.81;5957291;30;20218;-72
2021/04/26 10:56:50;;;;;;;1.40;1.40;;;;;;;5.53;57.26;101911.53;5957494;30;20276;-72
2021/04/26 10:59:53;;;;;;;1.40;1.40;;;;;;;5.39;56.08;101906.69;5956888;30;20293;-72
2021/04/26 11:02:58;;;;;;;2.87;1.50;;;;;;;5.58;56.42;101898.38;5956545;30;20536;-72
2021/04/26 11:06:28;;;;;;;2.20;1.43;;;;;;;5.72;55.86;101905.91;5956415;30;20393;-71
2021/04/26 11:09:36;;;;;;;2.10;1.43;;;;;;;5.78;55.58;101909.84;5956157;30;20223;-72
2021/04/26 11:12:40;;;;;;;3.10;1.30;;;;;;;5.70;54.36;101921.47;5957122;30;20196;-72
2021/04/26 11:15:43;;;;;;;1.63;1.40;;;;;;;5.70;54.45;101914.19;5957583;30;20196;-72
2021/04/26 11:19:06;;;;;;;1.37;1.27;;;;;;;5.70;53.27;101914.19;5957562;30;20207;-72
2021/04/26 11:22:10;;;;;;;1.40;1.40;;;;;;;5.58;53.87;101892.94;5941678;30;20212;-72
2021/04/26 11:25:33;;;;;;;1.57;1.47;;;;;;;5.78;53.97;101915.28;5957426;30;20204;-72
2021/04/26 11:29:07;;;;;;;2.67;1.40;;;;;;;5.62;54.48;101924.97;5957383;30;20202;-72
2021/04/26 11:32:14;;;;;;;1.13;1.00;;;;;;;5.47;54.15;101896.75;5957320;30;20254;-72
2021/04/26 11:35:18;;;;;;;1.47;1.37;;;;;;;5.71;54.08;101909.63;5957096;30;20201;-72
2021/04/26 11:38:22;;;;;;;1.53;1.43;;;;;;;5.68;54.01;101926.19;5957395;30;20196;-73
2021/04/26 11:41:39;;;;;;;1.80;1.20;;;;;;;5.55;53.97;101921.19;5957423;30;20202;-72
2021/04/26 11:44:42;;;;;;;1.17;1.17;;;;;;;5.72;54.14;101922.16;5957379;30;20199;-73
2021/04/26 11:47:46;;;;;;;4.00;1.50;;;;;;;5.76;53.99;101920.81;5957343;30;20247;-73
2021/04/26 11:50:49;;;;;;;1.20;1.20;;;;;;;5.61;54.15;101898.06;5955966;30;20542;-73
2021/04/26 11:54:08;;;;;;;2.10;1.30;;;;;;;5.72;54.32;101910.47;5956959;30;20195;-73
2021/04/26 11:57:19;;;;;;;2.47;1.20;;;;;;;5.61;54.55;101917.00;5956015;30;20547;-73
2021/04/26 12:00:25;;;;;;;1.40;1.37;;;;;;;5.67;54.74;101916.38;5955964;30;20201;-73
2021/04/26 12:03:29;;;;;;;4.50;1.40;;;;;;;5.76;55.09;101912.69;5956475;29;20374;-73
2021/04/26 12:06:32;;;;;;;1.30;1.20;;;;;;;5.70;54.18;101919.59;5957320;30;20197;-73
2021/04/26 12:09:37;;;;;;;2.30;1.40;;;;;;;5.59;55.23;101916.31;5958641;29;20223;-73
2021/04/26 12:12:42;;;;;;;3.33;1.20;;;;;;;5.80;55.12;101902.41;5961098;30;20204;-72
2021/04/26 12:15:47;;;;;;;3.07;0.97;;;;;;;5.70;55.57;101916.91;5960550;30;20200;-74
2021/04/26 12:18:58;;;;;;;1.00;1.00;;;;;;;5.65;55.42;101910.25;5960595;30;20196;-72
2021/04/26 12:22:01;;;;;;;2.40;1.13;;;;;;;5.68;55.61;101920.78;5959361;30;20503;-73
2021/04/26 12:25:06;;;;;;;3.10;1.33;;;;;;;5.60;55.52;101907.16;5960736;30;20278;-73
2021/04/26 12:28:13;;;;;;;1.87;1.43;;;;;;;5.70;55.67;101916.91;5959470;30;20465;-73
2021/04/26 12:31:22;;;;;;;0.90;0.90;;;;;;;5.53;55.68;101928.63;5960633;29;20228;-73
2021/04/26 12:34:26;;;;;;;2.57;1.33;;;;;;;5.42;56.70;101920.75;5959519;30;20231;-73
2021/04/26 12:37:38;;;;;;;2.70;1.10;;;;;;;5.45;56.55;101915.03;5960174;30;20196;-73
2021/04/26 12:40:41;;;;;;;5.13;1.10;;;;;;;5.53;56.86;101927.78;5960256;30;20204;-72
2021/04/26 12:43:52;;;;;;;1.20;1.20;;;;;;;5.55;57.01;101909.50;5960011;30;20242;-73
2021/04/26 12:46:58;;;;;;;5.40;1.40;;;;;;;5.49;57.33;101904.75;5960113;30;20206;-73
2021/04/26 12:50:17;;;;;;;1.10;1.10;;;;;;;5.37;56.97;101873.50;5959757;30;20223;-73
2021/04/26 12:53:21;;;;;;;1.33;1.20;;;;;;;5.54;56.48;101919.50;5959772;30;20203;-73
2021/04/26 12:56:24;;;;;;;1.10;1.10;;;;;;;5.62;57.09;101906.00;5959812;30;20201;-73
2021/04/26 12:59:43;;;;;;;1.23;1.10;;;;;;;5.66;56.50;101902.00;5959756;30;20335;-72
2021/04/26 13:02:46;;;;;;;2.90;1.33;;;;;;;5.74;56.97;101914.72;5958730;30;20431;-72
2021/04/26 13:05:52;;;;;;;1.20;1.10;;;;;;;5.60;56.13;101912.59;5958578;29;20392;-73
2021/04/26 13:08:58;;;;;;;1.00;1.00;;;;;;;5.55;56.34;101898.69;5959207;30;20198;-72
2021/04/26 13:12:01;;;;;;;1.70;1.20;;;;;;;5.56;56.47;101911.22;5959460;30;20197;-73
2021/04/26 13:15:25;;;;;;;4.47;1.67;;;;;;;5.56;55.80;101894.97;5959150;30;20196;-71
2021/04/26 13:18:28;;;;;;;0.93;0.93;;;;;;;5.60;55.73;101913.44;5958558;30;20254;-71
2021/04/26 13:21:34;;;;;;;5.00;1.50;;;;;;;5.38;56.85;101896.88;5958418;29;20359;-72
2021/04/26 13:24:37;;;;;;;0.90;0.90;;;;;;;5.58;56.24;101882.97;5958258;30;20260;-72
2021/04/26 13:27:43;;;;;;;1.50;1.27;;;;;;;5.63;56.66;101890.63;5959628;30;20197;-72
2021/04/26 13:30:46;;;;;;;1.50;1.40;;;;;;;5.76;56.12;101896.47;5958414;30;20251;-72
2021/04/26 13:33:50;;;;;;;1.07;1.07;;;;;;;5.71;56.29;101887.97;5959453;30;20197;-71
2021/04/26 13:36:55;;;;;;;1.97;1.10;;;;;;;5.67;55.59;101887.41;5958175;30;20488;-72
2021/04/26 13:39:59;;;;;;;1.10;1.10;;;;;;;5.76;55.46;101896.47;5959343;30;20199;-71
2021/04/26 13:43:05;;;;;;;1.23;1.10;;;;;;;5.82;54.87;101890.41;5958043;30;20486;-71
2021/04/26 13:46:11;;;;;;;2.00;1.03;;;;;;;5.72;55.57;101895.09;5958734;30;20238;-71
2021/04/26 13:49:14;;;;;;;1.10;1.10;;;;;;;5.66;55.65;101890.31;5958627;30;20204;-71
2021/04/26 13:52:18;;;;;;;2.33;1.20;;;;;;;5.63;55.52;101885.19;5958062;30;20196;-73
2021/04/26 13:55:21;;;;;;;14.90;5.27;;;;;;;5.73;55.44;101864.28;5958916;30;20236;-72
2021/04/26 13:58:24;;;;;;;2.77;1.80;;;;;;;5.80;56.06;101897.84;5957503;30;20277;-71
2021/04/26 14:01:27;;;;;;;2.30;1.60;;;;;;;5.69;56.19;101901.69;5958636;30;20209;-73
2021/04/26 14:04:32;;;;;;;1.20;1.20;;;;;;;5.71;56.26;101893.38;5961913;30;20271;-72
2021/04/26 14:07:36;;;;;;;2.67;1.30;;;;;;;5.79;55.63;101896.13;5961469;30;20234;-73
2021/04/26 14:10:39;;;;;;;2.13;1.20;;;;;;;5.77;55.08;101881.91;5957949;30;20224;-72
2021/04/26 14:13:43;;;;;;;1.37;1.37;;;;;;;5.87;54.09;101885.38;5957882;30;20196;-72
2021/04/26 14:16:46;;;;;;;1.47;1.00;;;;;;;5.73;54.70;101885.13;5958138;30;20196;-72
2021/04/26 14:19:50;;;;;;;1.20;1.17;;;;;;;5.61;55.46;101887.22;5957688;30;20205;-73
2021/04/26 14:22:54;;;;;;;1.03;1.03;;;;;;;5.48;56.58;101894.91;5958217;30;20474;-73
2021/04/26 14:25:58;;;;;;;2.10;1.60;;;;;;;5.46;56.32;101894.22;5958298;30;20203;-73
2021/04/26 14:29:02;;;;;;;3.03;1.40;;;;;;;5.56;54.63;101895.84;5958084;30;20238;-72
2021/04/26 14:32:06;;;;;;;1.20;1.17;;;;;;;5.43;54.65;101910.78;5956357;30;20256;-73
2021/04/26 14:35:10;;;;;;;0.90;0.90;;;;;;;5.37;55.09;101900.56;5940885;30;20503;-73
2021/04/26 14:38:31;;;;;;;3.23;1.30;;;;;;;5.42;55.43;101890.13;5956786;30;20393;-73
2021/04/26 14:41:34;;;;;;;5.23;1.40;;;;;;;5.58;54.54;101898.38;5957547;30;20203;-73
2021/04/26 14:44:37;;;;;;;2.83;1.20;;;;;;;5.52;54.16;101894.44;5958080;30;20202;-73